createdAt,value
2023-04-20T00:00:52.186Z,1.61
2023-04-20T00:01:52.232Z,1.62
2023-04-20T00:02:52.341Z,1.48
2023-04-20T00:03:52.500Z,1.59
2023-04-20T00:04:52.209Z,1.52
2023-04-20T00:05:52.223Z,1.64
2023-04-20T00:06:52.190Z,1.48
2023-04-20T00:07:52.185Z,1.49
2023-04-20T00:08:52.203Z,1.71
2023-04-20T00:09:52.205Z,1.59
2023-04-20T00:10:52.212Z,1.66
2023-04-20T00:11:52.198Z,1.59
2023-04-20T00:12:52.201Z,1.78
2023-04-20T00:13:52.196Z,1.46
2023-04-20T00:14:52.236Z,1.34
2023-04-20T00:15:52.200Z,1.76
2023-04-20T00:16:52.225Z,1.72
2023-04-20T00:17:52.274Z,1.38
2023-04-20T00:18:52.196Z,1.46
2023-04-20T00:19:52.203Z,1.62
2023-04-20T00:20:52.194Z,1.45
2023-04-20T00:21:52.192Z,1.57
2023-04-20T00:22:52.188Z,1.29
2023-04-20T00:23:52.211Z,1.31
2023-04-20T00:24:52.197Z,1.78
2023-04-20T00:25:52.203Z,1.56
2023-04-20T00:26:52.223Z,1.49
2023-04-20T00:27:52.210Z,1.53
2023-04-20T00:28:52.209Z,1.31
2023-04-20T00:29:52.191Z,1.60
2023-04-20T00:30:52.214Z,1.91
2023-04-20T00:31:52.188Z,1.44
2023-04-20T00:32:52.197Z,1.89
2023-04-20T00:33:52.183Z,1.37
2023-04-20T00:34:52.146Z,1.91
2023-04-20T00:35:52.141Z,1.45
2023-04-20T00:36:52.629Z,1.35
2023-04-20T00:37:51.762Z,1.37
2023-04-20T00:38:51.747Z,1.43
2023-04-20T00:39:51.736Z,1.42
2023-04-20T00:40:51.733Z,1.48
2023-04-20T00:41:51.732Z,1.55
2023-04-20T00:42:51.776Z,1.23
2023-04-20T00:43:51.747Z,1.48
2023-04-20T00:44:51.743Z,1.59
2023-04-20T00:45:51.790Z,1.26
2023-04-20T00:46:51.750Z,1.52
2023-04-20T00:47:51.813Z,1.26
2023-04-20T00:48:51.791Z,1.17
2023-04-20T00:49:51.793Z,1.29
2023-04-20T00:50:52.140Z,1.42
2023-04-20T00:51:52.143Z,1.62
2023-04-20T00:52:52.147Z,1.28
2023-04-20T00:53:52.184Z,1.41
2023-04-20T00:54:52.193Z,1.50
2023-04-20T00:55:52.184Z,1.41
2023-04-20T00:56:52.193Z,1.58
2023-04-20T00:57:52.181Z,1.41
2023-04-20T00:58:52.236Z,1.11
2023-04-20T00:59:52.181Z,1.37
2023-04-20T01:00:52.181Z,1.58
2023-04-20T01:01:52.227Z,1.43
2023-04-20T01:02:52.268Z,1.64
2023-04-20T01:03:52.250Z,1.09
2023-04-20T01:04:52.200Z,1.17
2023-04-20T01:05:52.637Z,1.08
2023-04-20T01:06:52.209Z,1.37
2023-04-20T01:07:52.191Z,1.37
2023-04-20T01:08:52.190Z,1.35
2023-04-20T01:09:52.625Z,1.30
2023-04-20T01:10:52.632Z,1.21
2023-04-20T01:11:52.194Z,1.26
2023-04-20T01:12:52.185Z,1.49
2023-04-20T01:13:52.196Z,1.25
2023-04-20T01:14:52.214Z,1.34
2023-04-20T01:15:52.652Z,1.20
2023-04-20T01:16:52.179Z,1.11
2023-04-20T01:17:52.675Z,1.37
2023-04-20T01:18:51.974Z,1.69
2023-04-20T01:19:51.970Z,1.27
2023-04-20T01:20:51.973Z,0.99
2023-04-20T01:21:51.980Z,1.36
2023-04-20T01:22:51.971Z,1.25
2023-04-20T01:23:52.152Z,1.29
2023-04-20T01:24:52.643Z,1.46
2023-04-20T01:25:51.975Z,1.20
2023-04-20T01:26:52.638Z,1.22
2023-04-20T01:27:51.981Z,1.27
2023-04-20T01:28:51.984Z,1.33
2023-04-20T01:29:51.975Z,1.34
2023-04-20T01:30:51.997Z,1.09
2023-04-20T01:31:52.033Z,1.29
2023-04-20T01:32:52.002Z,1.58
2023-04-20T01:33:51.999Z,1.20
2023-04-20T01:34:51.979Z,1.23
2023-04-20T01:35:51.994Z,1.07
2023-04-20T01:36:51.978Z,1.45
2023-04-20T01:37:51.985Z,1.07
2023-04-20T01:38:51.982Z,1.32
2023-04-20T01:39:52.019Z,1.32
2023-04-20T01:40:52.165Z,1.25
2023-04-20T01:41:51.984Z,1.29
2023-04-20T01:42:52.001Z,1.33
2023-04-20T01:43:52.005Z,1.29
2023-04-20T01:44:51.981Z,1.46
2023-04-20T01:45:51.993Z,1.03
2023-04-20T01:46:54.687Z,1.52
2023-04-20T01:47:52.031Z,1.31
2023-04-20T01:48:51.990Z,1.19
2023-04-20T01:49:52.017Z,1.16
2023-04-20T01:50:52.002Z,1.00
2023-04-20T01:51:51.991Z,1.36
2023-04-20T01:52:51.990Z,1.27
2023-04-20T01:53:52.003Z,1.44
2023-04-20T01:54:52.162Z,1.23
2023-04-20T01:55:52.020Z,1.16
2023-04-20T01:56:51.992Z,1.47
2023-04-20T01:57:51.993Z,1.02
2023-04-20T01:58:51.996Z,1.30
2023-04-20T01:59:51.996Z,1.15
2023-04-20T02:00:52.705Z,1.00
2023-04-20T02:01:52.039Z,1.17
2023-04-20T02:02:54.773Z,1.40
2023-04-20T02:03:55.273Z,1.07
2023-04-20T02:04:52.002Z,0.93
2023-04-20T02:05:52.003Z,1.02
2023-04-20T02:06:52.002Z,1.55
2023-04-20T02:07:52.012Z,1.34
2023-04-20T02:08:52.012Z,1.34
2023-04-20T02:09:51.962Z,1.33
2023-04-20T02:10:52.009Z,1.38
2023-04-20T02:11:52.157Z,1.31
2023-04-20T02:12:51.564Z,1.05
2023-04-20T02:13:51.564Z,0.74
2023-04-20T02:14:51.540Z,1.34
2023-04-20T02:15:51.556Z,1.09
2023-04-20T02:16:51.565Z,0.98
2023-04-20T02:17:51.510Z,1.19
2023-04-20T02:18:51.519Z,1.31
2023-04-20T02:19:51.475Z,1.20
2023-04-20T02:20:51.477Z,1.25
2023-04-20T02:21:51.449Z,1.42
2023-04-20T02:22:54.157Z,0.98
2023-04-20T02:23:51.421Z,1.39
2023-04-20T02:24:58.158Z,1.41
2023-04-20T02:25:51.398Z,1.26
2023-04-20T02:26:51.380Z,1.10
2023-04-20T02:27:51.359Z,1.03
2023-04-20T02:28:51.353Z,1.17
2023-04-20T02:29:51.356Z,1.09
2023-04-20T02:30:51.419Z,1.34
2023-04-20T02:31:51.317Z,1.29
2023-04-20T02:32:51.315Z,1.38
2023-04-20T02:33:51.296Z,1.16
2023-04-20T02:34:51.311Z,1.33
2023-04-20T02:35:51.261Z,1.02
2023-04-20T02:36:51.253Z,1.51
2023-04-20T02:37:51.234Z,1.28
2023-04-20T02:38:51.221Z,1.21
2023-04-20T02:39:51.214Z,1.29
2023-04-20T02:40:51.196Z,1.16
2023-04-20T02:41:51.182Z,1.23
2023-04-20T02:42:51.170Z,1.19
2023-04-20T02:43:51.160Z,1.25
2023-04-20T02:44:51.148Z,1.28
2023-04-20T02:45:51.133Z,1.11
2023-04-20T02:46:51.244Z,1.08
2023-04-20T02:47:51.137Z,0.90
2023-04-20T02:48:51.095Z,1.33
2023-04-20T02:49:51.104Z,1.00
2023-04-20T02:50:51.105Z,0.98
2023-04-20T02:51:51.067Z,1.02
2023-04-20T02:52:51.066Z,1.07
2023-04-20T02:53:51.052Z,1.07
2023-04-20T02:54:51.038Z,0.91
2023-04-20T02:55:51.036Z,1.09
2023-04-20T02:56:51.020Z,1.12
2023-04-20T02:57:51.005Z,1.40
2023-04-20T02:58:50.991Z,1.17
2023-04-20T02:59:51.003Z,1.14
2023-04-20T03:00:50.971Z,1.04
2023-04-20T03:01:50.976Z,1.21
2023-04-20T03:02:51.018Z,1.06
2023-04-20T03:03:51.063Z,0.94
2023-04-20T03:04:51.083Z,1.05
2023-04-20T03:05:50.920Z,1.13
2023-04-20T03:06:50.913Z,1.24
2023-04-20T03:07:50.924Z,1.04
2023-04-20T03:08:50.842Z,0.99
2023-04-20T03:09:50.836Z,0.99
2023-04-20T03:10:50.828Z,1.16
2023-04-20T03:11:50.798Z,1.10
2023-04-20T03:12:50.793Z,1.14
2023-04-20T03:13:50.767Z,1.02
2023-04-20T03:14:50.750Z,0.98
2023-04-20T03:15:52.040Z,0.86
2023-04-20T03:16:50.742Z,1.32
2023-04-20T03:17:50.781Z,1.08
2023-04-20T03:18:50.674Z,1.15
2023-04-20T03:19:50.682Z,1.15
2023-04-20T03:20:50.632Z,1.04
2023-04-20T03:21:51.181Z,1.14
2023-04-20T03:22:51.216Z,0.99
2023-04-20T03:23:50.595Z,1.00
2023-04-20T03:24:52.909Z,1.03
2023-04-20T03:25:50.587Z,1.07
2023-04-20T03:26:50.555Z,1.02
2023-04-20T03:27:50.534Z,0.94
2023-04-20T03:28:50.520Z,1.44
2023-04-20T03:29:51.185Z,1.24
2023-04-20T03:30:50.488Z,1.31
2023-04-20T03:31:50.501Z,0.98
2023-04-20T03:32:50.575Z,0.97
2023-04-20T03:33:50.429Z,0.78
2023-04-20T03:34:50.427Z,1.34
2023-04-20T03:35:50.383Z,1.21
2023-04-20T03:36:50.365Z,1.18
2023-04-20T03:37:50.349Z,1.20
2023-04-20T03:38:50.354Z,0.96
2023-04-20T03:39:50.306Z,0.97
2023-04-20T03:40:51.190Z,0.99
2023-04-20T03:41:50.284Z,0.99
2023-04-20T03:42:53.193Z,1.09
2023-04-20T03:43:50.242Z,1.14
2023-04-20T03:44:50.226Z,0.90
2023-04-20T03:45:51.221Z,0.93
2023-04-20T03:46:51.190Z,0.98
2023-04-20T03:47:50.237Z,0.88
2023-04-20T03:48:50.192Z,0.87
2023-04-20T03:49:50.142Z,1.21
2023-04-20T03:50:50.132Z,1.08
2023-04-20T03:51:50.690Z,1.06
2023-04-20T03:52:50.101Z,1.11
2023-04-20T03:53:50.691Z,1.34
2023-04-20T03:54:50.718Z,0.97
2023-04-20T03:55:50.208Z,0.88
2023-04-20T03:56:50.692Z,0.84
2023-04-20T03:57:50.014Z,0.87
2023-04-20T03:58:49.999Z,1.16
2023-04-20T03:59:49.997Z,0.98
2023-04-20T04:00:49.977Z,0.95
2023-04-20T04:01:49.967Z,0.91
2023-04-20T04:02:50.117Z,1.00
2023-04-20T04:03:50.148Z,1.03
2023-04-20T04:04:50.787Z,1.39
2023-04-20T04:05:49.878Z,1.10
2023-04-20T04:06:48.854Z,1.07
2023-04-20T04:07:49.853Z,0.98
2023-04-20T04:08:50.700Z,1.03
2023-04-20T04:09:49.811Z,1.14
2023-04-20T04:10:50.233Z,1.01
2023-04-20T04:11:49.776Z,0.90
2023-04-20T04:12:50.701Z,1.22
2023-04-20T04:13:50.703Z,0.99
2023-04-20T04:14:49.727Z,1.20
2023-04-20T04:15:50.206Z,1.29
2023-04-20T04:16:49.771Z,1.09
2023-04-20T04:17:50.284Z,1.15
2023-04-20T04:18:49.659Z,1.10
2023-04-20T04:19:49.631Z,1.10
2023-04-20T04:20:49.620Z,1.09
2023-04-20T04:21:49.600Z,1.18
2023-04-20T04:22:49.577Z,1.23
2023-04-20T04:23:49.561Z,1.04
2023-04-20T04:24:49.708Z,1.06
2023-04-20T04:25:50.201Z,0.78
2023-04-20T04:26:49.534Z,1.03
2023-04-20T04:27:52.207Z,0.72
2023-04-20T04:28:49.502Z,0.95
2023-04-20T04:29:49.479Z,1.39
2023-04-20T04:30:49.447Z,1.20
2023-04-20T04:31:49.444Z,0.87
2023-04-20T04:32:49.458Z,1.11
2023-04-20T04:33:49.386Z,1.00
2023-04-20T04:34:49.388Z,0.93
2023-04-20T04:35:49.450Z,1.52
2023-04-20T04:36:50.205Z,1.12
2023-04-20T04:37:49.323Z,1.03
2023-04-20T04:38:49.718Z,1.07
2023-04-20T04:39:49.288Z,0.99
2023-04-20T04:40:49.274Z,1.36
2023-04-20T04:41:50.211Z,0.96
2023-04-20T04:42:49.276Z,0.88
2023-04-20T04:43:49.722Z,0.97
2023-04-20T04:44:49.259Z,0.95
2023-04-20T04:47:07.762Z,1.09
2023-04-20T04:48:09.175Z,0.86
2023-04-20T04:49:08.072Z,1.22
2023-04-20T04:50:08.064Z,0.91
2023-04-20T04:51:08.061Z,1.23
2023-04-20T04:52:08.062Z,1.35
2023-04-20T04:53:08.760Z,0.96
2023-04-20T04:54:08.055Z,0.88
2023-04-20T04:55:08.098Z,1.03
2023-04-20T04:56:08.062Z,1.21
2023-04-20T04:57:08.058Z,1.16
2023-04-20T04:58:08.083Z,1.22
2023-04-20T04:59:08.086Z,0.98
2023-04-20T05:00:08.759Z,1.03
2023-04-20T05:01:08.157Z,0.85
2023-04-20T05:02:08.284Z,1.04
2023-04-20T05:03:08.362Z,0.88
2023-04-20T05:04:08.617Z,1.20
2023-04-20T05:05:09.713Z,1.00
2023-04-20T05:06:08.362Z,0.81
2023-04-20T05:07:08.365Z,1.01
2023-04-20T05:08:08.362Z,1.12
2023-04-20T05:09:08.364Z,0.95
2023-04-20T05:11:26.515Z,0.97
2023-04-20T05:12:27.504Z,1.13
2023-04-20T05:13:27.515Z,0.96
2023-04-20T05:14:27.908Z,0.84
2023-04-20T05:15:27.478Z,1.08
2023-04-20T05:16:28.433Z,0.94
2023-04-20T05:17:27.485Z,1.07
2023-04-20T05:18:27.445Z,0.94
2023-04-20T05:19:27.980Z,0.94
2023-04-20T05:20:27.425Z,0.88
2023-04-20T05:21:27.448Z,1.01
2023-04-20T05:22:27.413Z,1.15
2023-04-20T05:23:27.419Z,1.21
2023-04-20T05:24:27.395Z,0.97
2023-04-20T05:25:27.420Z,0.85
2023-04-20T05:26:27.378Z,0.93
2023-04-20T05:27:27.370Z,1.26
2023-04-20T05:28:27.367Z,0.87
2023-04-20T05:29:27.451Z,0.94
2023-04-20T05:30:27.336Z,0.88
2023-04-20T05:31:27.369Z,1.10
2023-04-20T05:32:27.333Z,0.93
2023-04-20T05:33:27.311Z,1.14
2023-04-20T05:34:27.280Z,0.60
2023-04-20T05:35:27.270Z,0.83
2023-04-20T05:36:27.404Z,1.19
2023-04-20T05:37:27.242Z,1.03
2023-04-20T05:38:27.233Z,0.86
2023-04-20T05:39:27.427Z,0.94
2023-04-20T05:40:27.218Z,0.98
2023-04-20T05:41:27.452Z,0.91
2023-04-20T05:42:27.187Z,0.98
2023-04-20T05:43:27.169Z,0.84
2023-04-20T05:44:27.915Z,0.91
2023-04-20T05:45:27.300Z,0.84
2023-04-20T05:46:27.608Z,1.06
2023-04-20T05:47:27.595Z,1.18
2023-04-20T05:48:29.138Z,0.90
2023-04-20T05:49:27.419Z,0.73
2023-04-20T05:50:27.153Z,0.93
2023-04-20T05:51:27.166Z,0.81
2023-04-20T05:52:27.167Z,1.05
2023-04-20T05:53:27.139Z,0.88
2023-04-20T05:54:27.490Z,0.71
2023-04-20T05:55:30.337Z,1.20
2023-04-20T05:56:27.172Z,1.10
2023-04-20T05:57:26.129Z,0.91
2023-04-20T05:58:30.297Z,0.70
2023-04-20T05:59:34.894Z,1.09
2023-04-20T06:00:27.154Z,0.94
2023-04-20T06:01:27.248Z,1.02
2023-04-20T06:02:27.104Z,0.90
2023-04-20T06:03:28.607Z,0.88
2023-04-20T06:04:27.714Z,0.85
2023-04-20T06:05:31.709Z,0.78
2023-04-20T06:06:27.028Z,1.08
2023-04-20T06:07:26.995Z,1.09
2023-04-20T06:08:27.459Z,0.94
2023-04-20T06:09:26.988Z,0.67
2023-04-20T06:10:26.961Z,0.98
2023-04-20T06:11:26.954Z,0.97
2023-04-20T06:12:26.932Z,0.87
2023-04-20T06:13:26.916Z,0.87
2023-04-20T06:14:26.868Z,0.98
2023-04-20T06:15:27.003Z,0.78
2023-04-20T06:16:27.010Z,0.69
2023-04-20T06:17:26.945Z,0.80
2023-04-20T06:18:26.842Z,1.08
2023-04-20T06:19:26.970Z,0.93
2023-04-20T06:20:26.829Z,1.03
2023-04-20T06:21:26.806Z,1.02
2023-04-20T06:22:26.788Z,1.04
2023-04-20T06:23:26.826Z,0.91
2023-04-20T06:24:26.965Z,1.00
2023-04-20T06:25:26.773Z,0.89
2023-04-20T06:26:26.753Z,1.05
2023-04-20T06:27:26.736Z,0.82
2023-04-20T06:28:26.961Z,0.93
2023-04-20T06:29:27.455Z,1.21
2023-04-20T06:30:26.684Z,0.88
2023-04-20T06:31:26.841Z,0.73
2023-04-20T06:32:26.772Z,0.94
2023-04-20T06:33:27.053Z,1.00
2023-04-20T06:34:27.007Z,0.74
2023-04-20T06:35:26.675Z,0.82
2023-04-20T06:36:27.465Z,0.94
2023-04-20T06:37:26.975Z,0.74
2023-04-20T06:38:26.639Z,1.02
2023-04-20T06:39:26.618Z,0.96
2023-04-20T06:40:26.609Z,1.32
2023-04-20T06:41:29.466Z,0.94
2023-04-20T06:42:27.874Z,1.00
2023-04-20T06:43:26.965Z,0.69
2023-04-20T06:44:26.558Z,0.87
2023-04-20T06:45:27.974Z,0.93
2023-04-20T06:46:27.498Z,0.89
2023-04-20T06:47:26.648Z,1.01
2023-04-20T06:48:32.063Z,1.15
2023-04-20T06:49:27.659Z,1.00
2023-04-20T06:50:27.532Z,1.33
2023-04-20T06:51:27.544Z,1.23
2023-04-20T06:52:33.959Z,1.04
2023-04-20T06:53:26.574Z,1.04
2023-04-20T06:54:28.505Z,0.99
2023-04-20T06:55:42.183Z,1.16
2023-04-20T06:56:42.088Z,1.00
2023-04-20T06:57:26.468Z,0.88
2023-04-20T06:58:27.010Z,1.10
2023-04-20T06:59:26.465Z,1.16
2023-04-20T07:00:26.441Z,1.01
2023-04-20T07:01:26.440Z,1.31
2023-04-20T07:02:26.497Z,1.26
2023-04-20T07:03:26.474Z,1.03
2023-04-20T07:04:27.050Z,1.15
2023-04-20T07:05:27.045Z,1.39
2023-04-20T07:06:26.311Z,1.10
2023-04-20T07:07:26.701Z,1.35
2023-04-20T07:08:29.514Z,0.85
2023-04-20T07:09:26.449Z,1.31
2023-04-20T07:10:26.318Z,1.39
2023-04-20T07:11:26.485Z,1.07
2023-04-20T07:12:26.288Z,0.99
2023-04-20T07:13:26.291Z,1.28
2023-04-20T07:14:26.468Z,1.41
2023-04-20T07:15:29.217Z,1.05
2023-04-20T07:16:26.521Z,1.31
2023-04-20T07:17:26.257Z,1.30
2023-04-20T07:18:27.177Z,1.00
2023-04-20T07:19:26.489Z,1.08
2023-04-20T07:20:26.227Z,1.30
2023-04-20T07:21:26.204Z,1.06
2023-04-20T07:22:26.149Z,1.33
2023-04-20T07:23:26.155Z,1.54
2023-04-20T07:24:26.455Z,1.26
2023-04-20T07:25:26.120Z,1.31
2023-04-20T07:26:26.089Z,1.12
2023-04-20T07:27:26.921Z,1.34
2023-04-20T07:28:26.072Z,1.28
2023-04-20T07:29:26.989Z,1.17
2023-04-20T07:30:26.097Z,1.17
2023-04-20T07:31:26.083Z,1.26
2023-04-20T07:32:28.025Z,1.22
2023-04-20T07:33:31.221Z,1.35
2023-04-20T07:34:26.508Z,1.41
2023-04-20T07:35:26.018Z,1.35
2023-04-20T07:36:25.989Z,1.56
2023-04-20T07:37:27.264Z,1.32
2023-04-20T07:38:26.478Z,1.39
2023-04-20T07:39:26.478Z,1.52
2023-04-20T07:40:26.135Z,1.60
2023-04-20T07:41:26.056Z,1.60
2023-04-20T07:42:27.521Z,1.70
2023-04-20T07:43:26.148Z,1.91
2023-04-20T07:44:26.179Z,1.93
2023-04-20T07:45:26.201Z,1.83
2023-04-20T07:46:26.304Z,1.43
2023-04-20T07:47:27.137Z,1.71
2023-04-20T07:48:26.320Z,1.77
2023-04-20T07:49:26.328Z,1.91
2023-04-20T07:50:26.396Z,1.58
2023-04-20T07:51:26.990Z,1.96
2023-04-20T07:52:30.350Z,2.02
2023-04-20T07:53:27.494Z,2.08
2023-04-20T07:54:26.479Z,2.00
2023-04-20T07:55:26.406Z,1.95
2023-04-20T07:57:26.377Z,1.60
2023-04-20T07:58:27.325Z,1.97
2023-04-20T07:59:26.987Z,2.00
2023-04-20T08:00:26.344Z,2.04
2023-04-20T08:01:26.465Z,2.07
2023-04-20T08:02:26.391Z,1.96
2023-04-20T08:03:27.223Z,1.80
2023-04-20T08:04:26.718Z,1.78
2023-04-20T08:05:26.263Z,1.60
2023-04-20T08:06:26.972Z,1.91
2023-04-20T08:07:26.180Z,1.71
2023-04-20T08:08:26.557Z,1.75
2023-04-20T08:09:26.187Z,1.61
2023-04-20T08:10:26.289Z,1.79
2023-04-20T08:11:26.477Z,1.77
2023-04-20T08:12:29.227Z,1.70
2023-04-20T08:13:26.282Z,1.93
2023-04-20T08:14:26.293Z,1.93
2023-04-20T08:15:26.249Z,1.81
2023-04-20T08:16:26.338Z,1.71
2023-04-20T08:17:26.246Z,2.84
2023-04-20T08:18:26.213Z,1.67
2023-04-20T08:19:26.476Z,1.73
2023-04-20T08:20:26.232Z,2.06
2023-04-20T08:21:29.214Z,1.81
2023-04-20T08:22:26.973Z,1.62
2023-04-20T08:23:26.337Z,1.82
2023-04-20T08:24:28.018Z,1.95
2023-04-20T08:25:27.245Z,1.51
2023-04-20T08:26:26.057Z,1.68
2023-04-20T08:27:29.214Z,2.08
2023-04-20T08:29:25.475Z,1.68
2023-04-20T08:30:26.015Z,1.88
2023-04-20T08:31:25.983Z,1.74
2023-04-20T08:32:26.102Z,1.87
2023-04-20T08:33:25.948Z,1.95
2023-04-20T08:34:25.984Z,1.58
2023-04-20T08:35:25.896Z,1.55
2023-04-20T08:36:25.939Z,1.92
2023-04-20T08:37:25.872Z,1.65
2023-04-20T08:38:33.328Z,1.59
2023-04-20T08:39:25.976Z,3.80
2023-04-20T08:40:25.950Z,2.97
2023-04-20T08:41:25.789Z,2.55
2023-04-20T08:42:25.793Z,3.01
2023-04-20T08:43:25.990Z,3.35
2023-04-20T08:44:25.980Z,3.00
2023-04-20T08:45:25.737Z,3.37
2023-04-20T08:46:26.524Z,3.21
2023-04-20T08:47:25.712Z,3.35
2023-04-20T08:48:25.982Z,2.96
2023-04-20T08:49:25.668Z,2.89
2023-04-20T08:50:25.645Z,3.50
2023-04-20T08:51:28.487Z,2.81
2023-04-20T08:52:25.629Z,2.96
2023-04-20T08:53:26.002Z,2.61
2023-04-20T08:54:25.992Z,2.75
2023-04-20T08:55:25.571Z,2.81
2023-04-20T08:56:28.846Z,2.50
2023-04-20T08:57:25.547Z,2.44
2023-04-20T08:58:25.529Z,2.92
2023-04-20T08:59:26.514Z,2.39
2023-04-20T09:00:25.494Z,2.58
2023-04-20T09:01:34.580Z,2.70
2023-04-20T09:02:25.618Z,2.29
2023-04-20T09:03:25.667Z,2.50
2023-04-20T09:04:26.394Z,2.80
2023-04-20T09:05:25.489Z,2.41
2023-04-20T09:06:25.425Z,2.74
2023-04-20T09:07:25.414Z,2.82
2023-04-20T09:08:25.404Z,2.48
2023-04-20T09:09:25.558Z,2.17
2023-04-20T09:10:25.457Z,2.82
2023-04-20T09:11:26.488Z,1.96
2023-04-20T09:12:25.587Z,2.60
2023-04-20T09:13:25.579Z,2.12
2023-04-20T09:14:26.059Z,2.51
2023-04-20T09:15:25.660Z,2.36
2023-04-20T09:16:25.709Z,2.76
2023-04-20T09:17:25.828Z,2.31
2023-04-20T09:18:26.490Z,2.74
2023-04-20T09:19:25.817Z,2.72
2023-04-20T09:20:25.998Z,2.48
2023-04-20T09:21:26.496Z,2.05
2023-04-20T09:22:25.992Z,2.41
2023-04-20T09:23:26.024Z,2.48
2023-04-20T09:24:26.500Z,2.86
2023-04-20T09:25:27.796Z,2.28
2023-04-20T09:26:26.071Z,2.09
2023-04-20T09:27:26.083Z,1.56
2023-04-20T09:28:26.111Z,1.94
2023-04-20T09:29:26.505Z,2.73
2023-04-20T09:30:26.006Z,2.34
2023-04-20T09:31:25.984Z,2.50
2023-04-20T09:32:26.035Z,2.67
2023-04-20T09:33:25.953Z,3.12
2023-04-20T09:34:25.999Z,3.03
2023-04-20T09:35:25.920Z,2.48
2023-04-20T09:36:25.920Z,2.16
2023-04-20T09:37:25.867Z,2.40
2023-04-20T09:38:26.003Z,2.64
2023-04-20T09:39:26.012Z,2.70
2023-04-20T09:40:29.704Z,2.17
2023-04-20T09:41:25.788Z,3.01
2023-04-20T09:42:25.770Z,2.40
2023-04-20T09:43:28.801Z,2.19
2023-04-20T09:44:27.541Z,2.40
2023-04-20T09:45:26.497Z,2.59
2023-04-20T09:47:43.739Z,2.70
2023-04-20T09:48:44.517Z,2.22
2023-04-20T09:49:44.513Z,1.93
2023-04-20T09:50:56.220Z,2.31
2023-04-20T09:51:47.691Z,2.41
2023-04-20T09:52:44.739Z,2.32
2023-04-20T09:53:44.521Z,2.25
2023-04-20T09:54:44.735Z,2.42
2023-04-20T09:55:44.507Z,2.52
2023-04-20T09:56:44.506Z,1.99
2023-04-20T09:57:44.491Z,2.18
2023-04-20T09:58:44.528Z,2.01
2023-04-20T09:59:44.504Z,2.20
2023-04-20T10:00:44.464Z,2.88
2023-04-20T10:01:44.567Z,2.25
2023-04-20T10:02:44.616Z,2.79
2023-04-20T10:03:44.534Z,2.22
2023-04-20T10:04:44.863Z,2.12
2023-04-20T10:05:44.429Z,2.25
2023-04-20T10:06:44.747Z,2.31
2023-04-20T10:07:47.724Z,2.21
2023-04-20T10:08:44.403Z,2.58
2023-04-20T10:09:44.735Z,2.63
2023-04-20T10:10:45.222Z,2.39
2023-04-20T10:11:52.295Z,2.32
2023-04-20T10:12:44.381Z,2.86
2023-04-20T10:13:44.342Z,2.19
2023-04-20T10:14:44.756Z,2.03
2023-04-20T10:15:44.351Z,2.04
2023-04-20T10:16:44.359Z,1.90
2023-04-20T10:17:44.370Z,2.00
2023-04-20T10:18:44.366Z,1.96
2023-04-20T10:19:44.756Z,1.88
2023-04-20T10:20:44.264Z,2.16
2023-04-20T10:21:44.252Z,2.13
2023-04-20T10:22:44.240Z,2.49
2023-04-20T10:23:44.236Z,1.69
2023-04-20T10:24:44.237Z,2.15
2023-04-20T10:25:44.208Z,2.16
2023-04-20T10:26:44.205Z,1.96
2023-04-20T10:27:44.187Z,1.44
2023-04-20T10:28:44.178Z,2.53
2023-04-20T10:29:44.278Z,1.90
2023-04-20T10:30:44.213Z,2.01
2023-04-20T10:31:44.239Z,2.16
2023-04-20T10:32:44.179Z,1.94
2023-04-20T10:33:44.311Z,1.94
2023-04-20T10:34:44.291Z,2.46
2023-04-20T10:35:45.920Z,2.06
2023-04-20T10:36:44.758Z,2.14
2023-04-20T10:37:44.238Z,2.00
2023-04-20T10:38:44.302Z,1.91
2023-04-20T10:39:44.261Z,2.28
2023-04-20T10:40:44.081Z,1.80
2023-04-20T10:41:44.068Z,1.82
2023-04-20T10:42:44.643Z,1.67
2023-04-20T10:43:44.557Z,1.81
2023-04-20T10:44:44.960Z,1.82
2023-04-20T10:45:44.599Z,1.54
2023-04-20T10:46:44.801Z,1.93
2023-04-20T10:47:44.070Z,1.86
2023-04-20T10:48:44.028Z,2.06
2023-04-20T10:49:44.267Z,1.84
2023-04-20T10:50:43.996Z,1.95
2023-04-20T10:51:43.990Z,1.96
2023-04-20T10:52:43.980Z,2.07
2023-04-20T10:53:44.011Z,2.28
2023-04-20T10:54:44.251Z,1.94
2023-04-20T10:55:43.964Z,1.93
2023-04-20T10:56:43.981Z,1.83
2023-04-20T10:57:44.022Z,2.26
2023-04-20T10:58:44.043Z,2.11
2023-04-20T10:59:44.247Z,1.76
2023-04-20T11:00:44.121Z,1.93
2023-04-20T11:01:44.184Z,1.95
2023-04-20T11:02:44.378Z,2.05
2023-04-20T11:03:44.424Z,2.02
2023-04-20T11:04:45.798Z,2.06
2023-04-20T11:05:45.247Z,1.74
2023-04-20T11:06:44.422Z,1.75
2023-04-20T11:07:44.435Z,1.89
2023-04-20T11:08:44.471Z,1.93
2023-04-20T11:09:44.936Z,1.80
2023-04-20T11:10:44.564Z,2.14
2023-04-20T11:11:44.560Z,1.62
2023-04-20T11:12:44.596Z,1.70
2023-04-20T11:13:44.651Z,1.94
2023-04-20T11:14:44.809Z,1.69
2023-04-20T11:15:44.710Z,1.66
2023-04-20T11:16:50.754Z,2.19
2023-04-20T11:17:44.819Z,1.87
2023-04-20T11:18:44.866Z,2.01
2023-04-20T11:19:44.832Z,1.81
2023-04-20T11:20:44.713Z,1.80
2023-04-20T11:21:44.706Z,1.44
2023-04-20T11:22:44.801Z,1.84
2023-04-20T11:23:44.717Z,1.81
2023-04-20T11:24:44.677Z,1.83
2023-04-20T11:25:45.131Z,1.92
2023-04-20T11:26:44.690Z,1.78
2023-04-20T11:27:44.769Z,1.80
2023-04-20T11:28:45.096Z,1.93
2023-04-20T11:29:44.684Z,1.65
2023-04-20T11:30:44.682Z,1.80
2023-04-20T11:31:44.714Z,1.83
2023-04-20T11:32:44.876Z,1.64
2023-04-20T11:33:44.716Z,1.53
2023-04-20T11:34:48.018Z,1.77
2023-04-20T11:35:44.664Z,1.64
2023-04-20T11:36:44.669Z,1.85
2023-04-20T11:37:44.675Z,1.60
2023-04-20T11:38:44.640Z,1.54
2023-04-20T11:39:44.663Z,1.95
2023-04-20T11:40:44.650Z,1.83
2023-04-20T11:41:44.630Z,1.71
2023-04-20T11:42:44.637Z,1.59
2023-04-20T11:43:45.279Z,1.88
2023-04-20T11:44:44.636Z,1.72
2023-04-20T11:45:44.635Z,2.08
2023-04-20T11:46:44.593Z,1.71
2023-04-20T11:47:44.613Z,1.46
2023-04-20T11:48:44.580Z,2.11
2023-04-20T11:49:44.812Z,1.62
2023-04-20T11:50:44.595Z,1.36
2023-04-20T11:51:44.568Z,1.72
2023-04-20T11:52:44.784Z,1.61
2023-04-20T11:53:44.581Z,2.07
2023-04-20T11:54:44.523Z,1.68
2023-04-20T11:55:44.766Z,1.61
2023-04-20T11:56:44.491Z,1.62
2023-04-20T11:57:47.264Z,1.69
2023-04-20T11:58:44.473Z,2.01
2023-04-20T11:59:47.266Z,1.94
2023-04-20T12:00:44.447Z,1.79
2023-04-20T12:01:44.442Z,1.79
2023-04-20T12:02:44.551Z,1.52
2023-04-20T12:03:46.900Z,1.34
2023-04-20T12:04:44.580Z,1.50
2023-04-20T12:05:44.479Z,1.89
2023-04-20T12:06:44.399Z,1.62
2023-04-20T12:07:44.355Z,1.36
2023-04-20T12:08:44.349Z,1.59
2023-04-20T12:09:44.804Z,1.31
2023-04-20T12:10:44.334Z,1.52
2023-04-20T12:11:44.322Z,1.77
2023-04-20T12:12:44.310Z,1.73
2023-04-20T12:13:44.300Z,1.63
2023-04-20T12:14:44.809Z,1.32
2023-04-20T12:15:44.327Z,1.72
2023-04-20T12:16:44.276Z,1.52
2023-04-20T12:17:44.311Z,1.65
2023-04-20T12:18:44.253Z,1.42
2023-04-20T12:19:44.257Z,1.56
2023-04-20T12:20:44.248Z,1.63
2023-04-20T12:21:44.281Z,1.56
2023-04-20T12:22:44.346Z,1.55
2023-04-20T12:23:44.331Z,1.89
2023-04-20T12:24:44.442Z,1.72
2023-04-20T12:25:44.400Z,1.57
2023-04-20T12:26:44.426Z,1.46
2023-04-20T12:27:44.628Z,1.51
2023-04-20T12:28:44.490Z,1.44
2023-04-20T12:29:44.840Z,1.47
2023-04-20T12:30:44.550Z,1.53
2023-04-20T12:31:44.634Z,1.68
2023-04-20T12:32:44.856Z,1.61
2023-04-20T12:33:44.642Z,1.78
2023-04-20T12:34:44.655Z,1.80
2023-04-20T12:35:44.679Z,1.54
2023-04-20T12:36:44.729Z,1.84
2023-04-20T12:37:44.728Z,1.42
2023-04-20T12:38:44.804Z,1.65
2023-04-20T12:39:44.806Z,1.62
2023-04-20T12:40:44.811Z,1.36
2023-04-20T12:41:44.830Z,1.63
2023-04-20T12:42:44.866Z,1.44
2023-04-20T12:43:44.897Z,1.74
2023-04-20T12:44:44.957Z,1.53
2023-04-20T12:45:44.944Z,1.22
2023-04-20T12:46:45.023Z,1.54
2023-04-20T12:47:45.047Z,1.61
2023-04-20T12:48:45.014Z,1.60
2023-04-20T12:49:45.055Z,1.46
2023-04-20T12:50:45.069Z,1.35
2023-04-20T12:51:45.084Z,1.22
2023-04-20T12:52:45.112Z,1.64
2023-04-20T12:53:45.142Z,1.54
2023-04-20T12:54:45.324Z,1.31
2023-04-20T12:55:45.184Z,1.60
2023-04-20T12:56:45.208Z,1.45
2023-04-20T12:57:47.784Z,1.79
2023-04-20T12:58:45.219Z,1.33
2023-04-20T12:59:45.289Z,1.67
2023-04-20T13:00:45.355Z,1.47
2023-04-20T13:01:45.814Z,1.35
2023-04-20T13:02:45.902Z,1.70
2023-04-20T13:03:45.342Z,1.65
2023-04-20T13:04:45.292Z,1.30
2023-04-20T13:05:45.128Z,1.77
2023-04-20T13:06:47.798Z,1.63
2023-04-20T13:07:45.108Z,1.47
2023-04-20T13:08:45.095Z,1.49
2023-04-20T13:09:45.299Z,1.24
2023-04-20T13:10:45.831Z,1.39
2023-04-20T13:11:45.051Z,1.37
2023-04-20T13:12:45.042Z,1.67
2023-04-20T13:13:45.395Z,1.78
2023-04-20T13:14:45.004Z,1.77
2023-04-20T13:15:44.985Z,1.25
2023-04-20T13:16:45.004Z,1.07
2023-04-20T13:17:44.974Z,1.34
2023-04-20T13:18:45.302Z,1.45
2023-04-20T13:19:44.990Z,1.28
2023-04-20T13:20:44.901Z,1.32
2023-04-20T13:21:44.886Z,1.37
2023-04-20T13:22:56.801Z,1.41
2023-04-20T13:23:44.866Z,1.47
2023-04-20T13:24:45.304Z,1.29